BALL34 KTTS-KTTS
Flight info
| Callsign | BALL34 |
|---|---|
| Flight time | 0h 0m |
| Altitude | 2500 |
| Route | VFR |
| Aircraft | V22/M-S/C |
Departure
| Time | 2026-05-08 22:01 |
|---|---|
| Airport | Space Florida Launch and Landing Facility (KTTS) |
Arrival
| Time | 2026-05-08 22:02 |
|---|---|
| Airport | Space Florida Launch and Landing Facility (KTTS) |
| Time | Latitude | Longitude | Altitude | Speed | Heading |
|---|---|---|---|---|---|
| 2026-05-08 20:16 | 28.60016 | -80.67951 | 18 ft | 0 kts | 57° |
| 2026-05-08 21:53 | 28.60028 | -80.67939 | 18 ft | 2 kts | 2° |
| 2026-05-08 21:53 | 28.60035 | -80.67954 | 18 ft | 0 kts | 240° |
| 2026-05-08 21:53 | 28.60032 | -80.67960 | 18 ft | 7 kts | 234° |
| 2026-05-08 21:54 | 28.60006 | -80.67985 | 18 ft | 5 kts | 211° |
| 2026-05-08 21:54 | 28.59976 | -80.68000 | 18 ft | 0 kts | 199° |
| 2026-05-08 21:54 | 28.59958 | -80.68007 | 18 ft | 6 kts | 199° |
| 2026-05-08 21:54 | 28.59932 | -80.68018 | 18 ft | 2 kts | 203° |
| 2026-05-08 21:55 | 28.59928 | -80.68020 | 18 ft | 0 kts | 203° |
| 2026-05-08 21:55 | 28.59903 | -80.68031 | 18 ft | 3 kts | 198° |
| 2026-05-08 21:55 | 28.59893 | -80.68035 | 18 ft | 3 kts | 199° |
| 2026-05-08 21:56 | 28.59884 | -80.68038 | 18 ft | 0 kts | 198° |
| 2026-05-08 21:59 | 28.59855 | -80.68048 | 18 ft | 21 kts | 198° |
| 2026-05-08 21:59 | 28.59767 | -80.68090 | 18 ft | 11 kts | 223° |
| 2026-05-08 21:59 | 28.59746 | -80.68157 | 17 ft | 8 kts | 275° |
| 2026-05-08 21:59 | 28.59749 | -80.68174 | 17 ft | 0 kts | 278° |
| 2026-05-08 22:00 | 28.59754 | -80.68216 | 18 ft | 24 kts | 280° |
| 2026-05-08 22:00 | 28.59889 | -80.68384 | 19 ft | 44 kts | 328° |
| 2026-05-08 22:00 | 28.60323 | -80.68677 | 160 ft | 102 kts | 329° |
| 2026-05-08 22:01 | 28.61076 | -80.69179 | 487 ft | 133 kts | 330° |
| 2026-05-08 22:01 | 28.61848 | -80.69668 | 592 ft | 125 kts | 332° |
| 2026-05-08 22:01 | 28.62625 | -80.70122 | 665 ft | 126 kts | 334° |
| 2026-05-08 22:01 | 28.63402 | -80.70549 | 657 ft | 120 kts | 334° |
| 2026-05-08 22:02 | 28.64126 | -80.70927 | 742 ft | 103 kts | 337° |
| 2026-05-08 22:02 | 28.64539 | -80.70834 | 653 ft | 43 kts | 65° |
| 2026-05-08 22:02 | 28.64649 | -80.70476 | 607 ft | 49 kts | 69° |
| 2026-05-08 22:02 | 28.64744 | -80.70147 | 627 ft | 40 kts | 72° |
| 2026-05-08 22:03 | 28.64788 | -80.69858 | 638 ft | 37 kts | 105° |
| 2026-05-08 22:03 | 28.64642 | -80.69603 | 653 ft | 37 kts | 126° |
| 2026-05-08 22:03 | 28.64513 | -80.69412 | 668 ft | 29 kts | 125° |
| 2026-05-08 22:03 | 28.64417 | -80.69218 | 693 ft | 29 kts | 114° |
| 2026-05-08 22:04 | 28.64333 | -80.69008 | 705 ft | 29 kts | 114° |
| 2026-05-08 22:04 | 28.64244 | -80.68797 | 727 ft | 30 kts | 114° |
| 2026-05-08 22:04 | 28.64185 | -80.68671 | 711 ft | 12 kts | 114° |
| 2026-05-08 22:04 | 28.64137 | -80.68582 | 708 ft | 14 kts | 114° |
| 2026-05-08 22:05 | 28.64083 | -80.68470 | 704 ft | 17 kts | 115° |
| 2026-05-08 22:05 | 28.64027 | -80.68358 | 703 ft | 10 kts | 115° |
| 2026-05-08 22:05 | 28.63984 | -80.68288 | 697 ft | 13 kts | 115° |
| 2026-05-08 22:05 | 28.63933 | -80.68193 | 694 ft | 17 kts | 115° |
| 2026-05-08 22:06 | 28.63896 | -80.68128 | 686 ft | 6 kts | 116° |
| 2026-05-08 22:06 | 28.63864 | -80.68075 | 668 ft | 10 kts | 116° |
| 2026-05-08 22:06 | 28.63795 | -80.67968 | 658 ft | 17 kts | 117° |
| 2026-05-08 22:06 | 28.63737 | -80.67866 | 660 ft | 17 kts | 117° |
| 2026-05-08 22:07 | 28.63687 | -80.67775 | 652 ft | 10 kts | 117° |
| 2026-05-08 22:07 | 28.63658 | -80.67725 | 647 ft | 6 kts | 117° |
| 2026-05-08 22:07 | 28.63629 | -80.67679 | 642 ft | 6 kts | 117° |
| 2026-05-08 22:07 | 28.63603 | -80.67642 | 637 ft | 6 kts | 117° |
| 2026-05-08 22:08 | 28.63577 | -80.67594 | 639 ft | 10 kts | 116° |
| 2026-05-08 22:08 | 28.63559 | -80.67565 | 638 ft | 4 kts | 116° |
| 2026-05-08 22:08 | 28.63565 | -80.67597 | 636 ft | 1 kts | 116° |
| 2026-05-08 22:08 | 28.63552 | -80.67583 | 635 ft | 5 kts | 116° |
| 2026-05-08 22:09 | 28.63542 | -80.67571 | 634 ft | 1 kts | 116° |
| 2026-05-08 22:09 | 28.63537 | -80.67569 | 635 ft | 1 kts | 116° |
| 2026-05-08 22:09 | 28.63527 | -80.67557 | 634 ft | 3 kts | 115° |
| 2026-05-08 22:09 | 28.63514 | -80.67543 | 639 ft | 2 kts | 115° |
| 2026-05-08 22:10 | 28.63501 | -80.67527 | 640 ft | 3 kts | 115° |
| 2026-05-08 22:10 | 28.63486 | -80.67509 | 645 ft | 6 kts | 115° |
| 2026-05-08 22:10 | 28.63398 | -80.67395 | 697 ft | 40 kts | 133° |
| 2026-05-08 22:10 | 28.63145 | -80.67136 | 768 ft | 54 kts | 136° |
| 2026-05-08 22:11 | 28.62719 | -80.66719 | 936 ft | 96 kts | 140° |
| 2026-05-08 22:11 | 28.62248 | -80.66291 | 935 ft | 84 kts | 142° |
| 2026-05-08 22:11 | 28.61781 | -80.65888 | 883 ft | 85 kts | 144° |
| 2026-05-08 22:11 | 28.61297 | -80.65519 | 882 ft | 83 kts | 147° |
| 2026-05-08 22:12 | 28.60829 | -80.65167 | 908 ft | 79 kts | 146° |
| 2026-05-08 22:12 | 28.60379 | -80.64822 | 911 ft | 78 kts | 146° |
| 2026-05-08 22:12 | 28.59908 | -80.64499 | 873 ft | 80 kts | 151° |
| 2026-05-08 22:12 | 28.59410 | -80.64229 | 823 ft | 79 kts | 158° |
| 2026-05-08 22:13 | 28.58888 | -80.64063 | 759 ft | 76 kts | 168° |
| 2026-05-08 22:13 | 28.58372 | -80.63963 | 696 ft | 75 kts | 169° |
| 2026-05-08 22:13 | 28.57868 | -80.63889 | 663 ft | 67 kts | 171° |
| 2026-05-08 22:13 | 28.57495 | -80.63820 | 519 ft | 50 kts | 78° |
| 2026-05-08 22:14 | 28.57607 | -80.63631 | 387 ft | 37 kts | 323° |
| 2026-05-08 22:14 | 28.57810 | -80.63751 | 339 ft | 28 kts | 334° |
| 2026-05-08 22:14 | 28.57971 | -80.63799 | 397 ft | 22 kts | 345° |
| 2026-05-08 22:14 | 28.58191 | -80.63855 | 478 ft | 32 kts | 358° |
| 2026-05-08 22:15 | 28.58310 | -80.63879 | 517 ft | 7 kts | 16° |
| 2026-05-08 22:15 | 28.58322 | -80.63908 | 565 ft | 4 kts | 36° |
| 2026-05-08 22:15 | 28.58381 | -80.63898 | 612 ft | 9 kts | 39° |
| 2026-05-08 22:15 | 28.58461 | -80.63857 | 663 ft | 20 kts | 41° |
| 2026-05-08 22:16 | 28.58572 | -80.63784 | 691 ft | 17 kts | 45° |
| 2026-05-08 22:16 | 28.58629 | -80.63759 | 701 ft | 3 kts | 47° |
| 2026-05-08 22:16 | 28.58642 | -80.63765 | 709 ft | 1 kts | 50° |
| 2026-05-08 22:16 | 28.58658 | -80.63770 | 716 ft | 3 kts | 52° |
| 2026-05-08 22:17 | 28.58681 | -80.63775 | 733 ft | 3 kts | 54° |
| 2026-05-08 22:17 | 28.58708 | -80.63777 | 745 ft | 5 kts | 56° |
| 2026-05-08 22:17 | 28.58744 | -80.63753 | 753 ft | 8 kts | 57° |
| 2026-05-08 22:17 | 28.58789 | -80.63713 | 761 ft | 10 kts | 59° |
| 2026-05-08 22:18 | 28.58841 | -80.63640 | 769 ft | 12 kts | 60° |
| 2026-05-08 22:18 | 28.58872 | -80.63618 | 777 ft | 7 kts | 62° |
| 2026-05-08 22:18 | 28.58905 | -80.63585 | 790 ft | 2 kts | 63° |
| 2026-05-08 22:18 | 28.58916 | -80.63594 | 802 ft | 2 kts | 64° |
| 2026-05-08 22:19 | 28.58922 | -80.63601 | 817 ft | 2 kts | 66° |
| 2026-05-08 22:19 | 28.58936 | -80.63592 | 833 ft | 1 kts | 67° |
| 2026-05-08 22:19 | 28.58939 | -80.63601 | 851 ft | 2 kts | 68° |
| 2026-05-08 22:19 | 28.58937 | -80.63628 | 867 ft | 5 kts | 69° |
| 2026-05-08 22:20 | 28.58931 | -80.63678 | 883 ft | 8 kts | 70° |
| 2026-05-08 22:20 | 28.58921 | -80.63744 | 903 ft | 9 kts | 71° |
| 2026-05-08 22:20 | 28.58908 | -80.63824 | 919 ft | 11 kts | 72° |
| 2026-05-08 22:20 | 28.58889 | -80.63927 | 932 ft | 15 kts | 72° |
| 2026-05-08 22:21 | 28.58879 | -80.63997 | 948 ft | 2 kts | 73° |
| 2026-05-08 22:21 | 28.58886 | -80.64011 | 973 ft | 3 kts | 74° |
| 2026-05-08 22:21 | 28.58889 | -80.64040 | 996 ft | 4 kts | 75° |
| 2026-05-08 22:21 | 28.58891 | -80.64079 | 1016 ft | 6 kts | 76° |
| 2026-05-08 22:22 | 28.58889 | -80.64141 | 1030 ft | 6 kts | 77° |
| 2026-05-08 22:22 | 28.58894 | -80.64161 | 1063 ft | 2 kts | 69° |
| 2026-05-08 22:22 | 28.58891 | -80.64191 | 1086 ft | 6 kts | 69° |
| 2026-05-08 22:22 | 28.58874 | -80.64261 | 1110 ft | 10 kts | 70° |
| 2026-05-08 22:23 | 28.58857 | -80.64338 | 1132 ft | 13 kts | 71° |
| 2026-05-08 22:23 | 28.58842 | -80.64417 | 1160 ft | 9 kts | 72° |
| 2026-05-08 22:23 | 28.58829 | -80.64493 | 1180 ft | 10 kts | 73° |
| 2026-05-08 22:23 | 28.58818 | -80.64562 | 1205 ft | 7 kts | 74° |
| 2026-05-08 22:24 | 28.58817 | -80.64592 | 1237 ft | 2 kts | 75° |
| 2026-05-08 22:24 | 28.58821 | -80.64603 | 1261 ft | 3 kts | 75° |
| 2026-05-08 22:24 | 28.58820 | -80.64634 | 1270 ft | 4 kts | 76° |
| 2026-05-08 22:24 | 28.58818 | -80.64667 | 1277 ft | 4 kts | 76° |
| 2026-05-08 22:25 | 28.58813 | -80.64708 | 1278 ft | 7 kts | 76° |
| 2026-05-08 22:25 | 28.58804 | -80.64772 | 1287 ft | 9 kts | 77° |
| 2026-05-08 22:25 | 28.58798 | -80.64810 | 1305 ft | 1 kts | 77° |
| 2026-05-08 22:25 | 28.58804 | -80.64788 | 1311 ft | 4 kts | 77° |
| 2026-05-08 22:26 | 28.58816 | -80.64737 | 1314 ft | 8 kts | 77° |
| 2026-05-08 22:26 | 28.58830 | -80.64681 | 1324 ft | 5 kts | 78° |
| 2026-05-08 22:26 | 28.58837 | -80.64663 | 1329 ft | 1 kts | 78° |
| 2026-05-08 22:26 | 28.58845 | -80.64675 | 1322 ft | 6 kts | 64° |
| 2026-05-08 22:27 | 28.58948 | -80.64709 | 1408 ft | 21 kts | 107° |
| 2026-05-08 22:27 | 28.58996 | -80.64558 | 1574 ft | 23 kts | 177° |
| 2026-05-08 22:27 | 28.58966 | -80.64415 | 1783 ft | 5 kts | 124° |
| 2026-05-08 22:27 | 28.58826 | -80.64568 | 1781 ft | 62 kts | 84° |
| 2026-05-08 22:28 | 28.58531 | -80.64530 | 1534 ft | 41 kts | 40° |
| 2026-05-08 22:28 | 28.58888 | -80.64268 | 1569 ft | 86 kts | 19° |
| 2026-05-08 22:28 | 28.59604 | -80.63948 | 1358 ft | 139 kts | 19° |
| 2026-05-08 22:28 | 28.60524 | -80.63628 | 887 ft | 150 kts | 13° |
| 2026-05-08 22:29 | 28.61411 | -80.63493 | 499 ft | 104 kts | 351° |
| 2026-05-08 22:29 | 28.62072 | -80.63715 | 440 ft | 113 kts | 341° |
| 2026-05-08 22:29 | 28.62990 | -80.64091 | 594 ft | 164 kts | 339° |
| 2026-05-08 22:29 | 28.64191 | -80.64652 | 577 ft | 198 kts | 335° |
| 2026-05-08 22:30 | 28.65415 | -80.65423 | 570 ft | 206 kts | 330° |
| 2026-05-08 22:30 | 28.66552 | -80.66159 | 561 ft | 162 kts | 331° |
| 2026-05-08 22:30 | 28.67256 | -80.66812 | 461 ft | 104 kts | 291° |
| 2026-05-08 22:30 | 28.67132 | -80.67436 | 358 ft | 93 kts | 227° |
| 2026-05-08 22:31 | 28.66394 | -80.67814 | 530 ft | 145 kts | 190° |
| 2026-05-08 22:31 | 28.65341 | -80.68011 | 580 ft | 149 kts | 187° |
| 2026-05-08 22:31 | 28.64436 | -80.68098 | 780 ft | 118 kts | 183° |
| 2026-05-08 22:31 | 28.63429 | -80.68174 | 829 ft | 173 kts | 185° |
| 2026-05-08 22:32 | 28.62254 | -80.68401 | 798 ft | 159 kts | 189° |
| 2026-05-08 22:32 | 28.61358 | -80.68351 | 781 ft | 101 kts | 159° |
| 2026-05-08 22:32 | 28.60766 | -80.67987 | 690 ft | 101 kts | 144° |
| 2026-05-08 22:32 | 28.60197 | -80.67557 | 746 ft | 88 kts | 148° |
| 2026-05-08 22:33 | 28.59584 | -80.67180 | 735 ft | 108 kts | 150° |
| 2026-05-08 22:33 | 28.58886 | -80.66788 | 786 ft | 112 kts | 154° |
| 2026-05-08 22:33 | 28.58244 | -80.66466 | 884 ft | 95 kts | 157° |
| 2026-05-08 22:33 | 28.57635 | -80.66218 | 918 ft | 85 kts | 159° |
| 2026-05-08 22:34 | 28.57195 | -80.66044 | 914 ft | 63 kts | 157° |
| 2026-05-08 22:34 | 28.56785 | -80.65848 | 1089 ft | 71 kts | 141° |
| 2026-05-08 22:34 | 28.56643 | -80.65224 | 1135 ft | 108 kts | 64° |
| 2026-05-08 22:34 | 28.57021 | -80.64651 | 1014 ft | 84 kts | 54° |
| 2026-05-08 22:35 | 28.57421 | -80.64049 | 873 ft | 113 kts | 53° |
| 2026-05-08 22:35 | 28.57951 | -80.63400 | 701 ft | 113 kts | 21° |
| 2026-05-08 22:35 | 28.58756 | -80.63295 | 793 ft | 104 kts | 4° |
| 2026-05-08 22:35 | 28.59282 | -80.63219 | 934 ft | 61 kts | 7° |
| 2026-05-08 22:36 | 28.59860 | -80.63107 | 1110 ft | 99 kts | 8° |
| 2026-05-08 22:36 | 28.60446 | -80.62888 | 1238 ft | 71 kts | 38° |
| 2026-05-08 22:36 | 28.60328 | -80.62698 | 923 ft | 50 kts | 222° |
| 2026-05-08 22:36 | 28.60466 | -80.62986 | 694 ft | 44 kts | 339° |
| 2026-05-08 22:37 | 28.60588 | -80.63001 | 687 ft | 7 kts | 20° |
| 2026-05-08 22:37 | 28.60586 | -80.63010 | 679 ft | 1 kts | 78° |
| 2026-05-08 22:37 | 28.60598 | -80.63004 | 705 ft | 5 kts | 18° |
| 2026-05-08 22:37 | 28.60816 | -80.63023 | 684 ft | 64 kts | 357° |
| 2026-05-08 22:38 | 28.61477 | -80.63095 | 646 ft | 127 kts | 352° |
| 2026-05-08 22:38 | 28.62521 | -80.63361 | 751 ft | 183 kts | 345° |
| 2026-05-08 22:38 | 28.63721 | -80.63484 | 999 ft | 175 kts | 30° |
| 2026-05-08 22:38 | 28.63414 | -80.62746 | 1185 ft | 174 kts | 211° |
| 2026-05-08 22:39 | 28.63856 | -80.63729 | 1158 ft | 157 kts | 324° |
| 2026-05-08 22:39 | 28.64522 | -80.64565 | 1035 ft | 143 kts | 291° |
| 2026-05-08 22:39 | 28.64143 | -80.65472 | 807 ft | 142 kts | 212° |
| 2026-05-08 22:39 | 28.63418 | -80.65966 | 595 ft | 95 kts | 215° |
| 2026-05-08 22:40 | 28.62827 | -80.66292 | 648 ft | 99 kts | 198° |
| 2026-05-08 22:40 | 28.62171 | -80.66465 | 751 ft | 83 kts | 188° |
| 2026-05-08 22:40 | 28.61722 | -80.66568 | 718 ft | 67 kts | 194° |
| 2026-05-08 22:40 | 28.61289 | -80.66700 | 665 ft | 61 kts | 181° |
| 2026-05-08 22:41 | 28.60830 | -80.66734 | 703 ft | 69 kts | 181° |
| 2026-05-08 22:41 | 28.60362 | -80.66775 | 722 ft | 65 kts | 181° |
| 2026-05-08 22:41 | 28.59950 | -80.66813 | 768 ft | 49 kts | 179° |
| 2026-05-08 22:41 | 28.59757 | -80.66817 | 642 ft | 20 kts | 159° |
| 2026-05-08 22:42 | 28.59552 | -80.66759 | 654 ft | 31 kts | 154° |
| 2026-05-08 22:42 | 28.59307 | -80.66689 | 701 ft | 39 kts | 158° |
| 2026-05-08 22:42 | 28.59003 | -80.66680 | 723 ft | 43 kts | 180° |
| 2026-05-08 22:42 | 28.58734 | -80.66838 | 663 ft | 45 kts | 221° |
| 2026-05-08 22:43 | 28.58602 | -80.67182 | 629 ft | 52 kts | 265° |
| 2026-05-08 22:43 | 28.58693 | -80.67553 | 477 ft | 49 kts | 311° |
| 2026-05-08 22:43 | 28.58916 | -80.67763 | 353 ft | 34 kts | 335° |
| 2026-05-08 22:43 | 28.59081 | -80.67869 | 273 ft | 25 kts | 335° |
| 2026-05-08 22:44 | 28.59224 | -80.67961 | 219 ft | 23 kts | 335° |
| 2026-05-08 22:44 | 28.59399 | -80.68073 | 182 ft | 34 kts | 334° |
| 2026-05-08 22:44 | 28.59593 | -80.68200 | 135 ft | 30 kts | 332° |
| 2026-05-08 22:44 | 28.59725 | -80.68273 | 66 ft | 8 kts | 35° |
| 2026-05-08 22:45 | 28.59757 | -80.68223 | 43 ft | 9 kts | 105° |
| 2026-05-08 22:45 | 28.59750 | -80.68153 | 19 ft | 7 kts | 89° |
| 2026-05-08 22:45 | 28.59795 | -80.68087 | 18 ft | 13 kts | 29° |
| 2026-05-08 22:45 | 28.59876 | -80.68045 | 18 ft | 12 kts | 19° |
| 2026-05-08 22:46 | 28.59934 | -80.68030 | 18 ft | 5 kts | 12° |
| 2026-05-08 22:46 | 28.59976 | -80.68019 | 18 ft | 7 kts | 11° |
| 2026-05-08 22:46 | 28.59996 | -80.68022 | 18 ft | 1 kts | 286° |
| 2026-05-08 22:46 | 28.59988 | -80.68031 | 18 ft | 3 kts | 167° |
| 2026-05-08 22:47 | 28.59995 | -80.68034 | 18 ft | 0 kts | 157° |
| 2026-05-08 22:47 | 28.59995 | -80.68035 | 18 ft | 0 kts | 157° |